Terminal Aerodrome Forecast
Issued by NWS

Home | Current Version | Previous Version | Text Only | Print | Product List | Glossary On
Versions: 1 2 3 4 5 6 7 8 9 10 11 12 13 14 15
000
FTUS43 KLSX 121000 AAA
TAFUIN
TAF AMD
KUIN 121043Z 1211/1306 22008KT P6SM SCT070 BKN150
     FM121300 22007KT P6SM VCSH BKN080
     FM121500 22008KT P6SM BKN120=

USA.gov is the U.S. government's official web portal to all federal, state and local government web resources and services.